Adelaide, California
Current Conditions -  °F | °C
As of 2:53 PM on Monday 20 Oct 2014 (Local Time) from KPRB Reporting Station
Clear Clear  
Wind Chill: 24°   Ceiling: Unl
Heat Index: 24°   Visibility: 10mi
Dew Point:   Wind: 8mph
Humidity: 38%   Direction: 310°NW
Pressure: 29.92"   Gusts: NA
Location:  35.6618°N, 120.707°W
Report Text: KPRB 202153Z AUTO 31007KT 10SM CLR 24/09 A2992 RMK AO2 SLP127 T02440094 TSNO
Loading
Personal Weather Stations






























Interactive Weather Map
Tropical Storm Tracking
New forecast layout! Learn more

10-Day Weather Forecast

Advertisements
Track Severe Weather on mobile